createdAt,value
2017-07-01T12:02:01.416Z,16.00
2017-07-01T12:04:35.926Z,16.00
2017-07-01T12:10:01.783Z,16.00
2017-07-01T12:12:44.033Z,16.00
2017-07-01T12:18:05.370Z,16.00
2017-07-01T12:23:34.929Z,16.00
2017-07-01T12:26:09.204Z,16.00
2017-07-01T12:28:44.686Z,16.00
2017-07-01T12:31:24.534Z,16.00
2017-07-01T12:34:07.622Z,16.00
2017-07-01T12:36:42.681Z,16.00
2017-07-01T12:39:17.111Z,16.00
2017-07-01T12:41:56.064Z,16.00
2017-07-01T12:44:29.496Z,16.00
2017-07-01T12:47:06.173Z,16.00
2017-07-01T12:49:41.363Z,16.00
2017-07-01T12:52:16.459Z,16.00
2017-07-01T12:54:55.018Z,16.00
2017-07-01T12:57:29.762Z,16.00
2017-07-01T13:00:05.055Z,16.00
2017-07-01T13:02:41.889Z,16.00
2017-07-01T13:05:15.917Z,16.10
2017-07-01T13:07:50.251Z,16.00
2017-07-01T13:10:23.931Z,16.00
2017-07-01T13:12:58.792Z,16.00
2017-07-01T13:15:33.998Z,16.10
2017-07-01T13:18:09.216Z,16.10
2017-07-01T13:20:43.726Z,16.10
2017-07-01T13:23:17.694Z,16.20
2017-07-01T13:25:52.911Z,16.20
2017-07-01T13:28:29.895Z,16.20
2017-07-01T13:31:05.732Z,16.20
2017-07-01T13:33:40.538Z,16.20
2017-07-01T13:36:15.375Z,16.10
2017-07-01T13:38:51.269Z,16.10
2017-07-01T13:41:25.094Z,16.20
2017-07-01T13:43:59.756Z,16.20
2017-07-01T13:46:33.446Z,16.30
2017-07-01T13:49:07.516Z,16.30
2017-07-01T13:51:41.979Z,16.30
2017-07-01T13:54:15.335Z,16.30
2017-07-01T13:56:53.856Z,16.30
2017-07-01T13:59:31.648Z,16.30
2017-07-01T14:05:06.995Z,16.30
2017-07-01T14:07:44.110Z,16.30
2017-07-01T14:13:10.671Z,16.30
2017-07-01T14:15:45.794Z,16.30
2017-07-01T14:18:26.836Z,16.30
2017-07-01T14:21:13.494Z,16.30
2017-07-01T14:23:48.679Z,16.30
2017-07-01T14:29:04.694Z,16.40
2017-07-01T14:31:43.243Z,16.40
2017-07-01T14:34:22.866Z,16.40
2017-07-01T14:36:57.231Z,16.40
2017-07-01T14:39:34.065Z,16.40
2017-07-01T14:42:11.402Z,16.40
2017-07-01T14:44:47.888Z,16.40
2017-07-01T14:47:22.392Z,16.40
2017-07-01T14:50:02.778Z,16.40
2017-07-01T14:52:49.880Z,16.40
2017-07-01T14:55:23.662Z,16.40
2017-07-01T14:58:00.249Z,16.40
2017-07-01T15:00:34.544Z,16.40
2017-07-01T15:03:16.958Z,16.40
2017-07-01T15:05:53.944Z,16.50
2017-07-01T15:08:30.226Z,16.50
2017-07-01T15:11:05.798Z,16.50
2017-07-01T15:13:49.505Z,16.50
2017-07-01T15:19:08.892Z,16.60
2017-07-01T15:21:43.949Z,16.50
2017-07-01T15:24:28.549Z,16.50
2017-07-01T15:27:07.523Z,16.50
2017-07-01T15:29:40.119Z,16.50
2017-07-01T15:32:14.699Z,16.50
2017-07-01T15:34:51.017Z,16.50
2017-07-01T15:40:29.980Z,16.60
2017-07-01T15:43:07.911Z,16.60
2017-07-01T15:45:42.980Z,16.60
2017-07-01T15:48:19.031Z,16.60
2017-07-01T15:54:00.118Z,16.60
2017-07-01T15:56:42.711Z,16.60
2017-07-01T15:59:21.370Z,16.60
2017-07-01T16:01:58.451Z,16.60
2017-07-01T16:04:34.844Z,16.60
2017-07-01T16:09:51.406Z,16.70
2017-07-01T16:12:26.457Z,16.70
2017-07-01T16:15:01.775Z,16.70
2017-07-01T16:17:35.651Z,16.70
2017-07-01T16:20:10.991Z,16.70
2017-07-01T16:22:42.261Z,16.70
2017-07-01T16:25:21.818Z,16.70
2017-07-01T16:27:57.721Z,16.70
2017-07-01T16:33:24.261Z,16.80
2017-07-01T22:24:54.073Z,16.10
2017-07-01T22:36:15.354Z,16.10
2017-07-01T22:41:57.613Z,16.10
